Time;durP1;ratioP1;P1;durP2;ratioP2;P2;SDS_P1;SDS_P2;PMS_P1;PMS_P2;Temp;Humidity;BMP_temperature;BMP_pressure;BME280_temperature;BME280_humidity;BME280_pressure;Samples;Min_cycle;Max_cycle;Signal;HPM_P1;HPM_P2
2021/12/02 00:00:42;;;;;;;13.25;2.38;;;8.00;99.90;;;;;;4924235;29;20378;-91
2021/12/02 00:03:08;;;;;;;17.73;2.10;;;7.90;99.90;;;;;;4935704;29;20143;-90
2021/12/02 00:05:34;;;;;;;12.57;1.58;;;7.90;99.90;;;;;;4925688;29;20044;-90
2021/12/02 00:08:01;;;;;;;13.95;2.22;;;8.00;99.90;;;;;;4925284;29;20121;-89
2021/12/02 00:10:31;;;;;;;14.50;2.35;;;7.90;99.90;;;;;;4937170;29;20064;-90
2021/12/02 00:12:58;;;;;;;19.05;2.10;;;7.80;99.90;;;;;;4920074;29;20067;-90
2021/12/02 00:15:32;;;;;;;13.68;2.45;;;7.90;99.90;;;;;;4925837;29;20059;-90
2021/12/02 00:23:37;;;;;;;17.15;2.25;;;7.80;99.90;;;;;;4924709;29;20043;-90
2021/12/02 00:26:09;;;;;;;15.05;2.40;;;7.70;99.90;;;;;;4926983;29;20351;-90
2021/12/02 00:28:37;;;;;;;15.52;2.05;;;7.60;99.90;;;;;;4926191;29;20031;-90
2021/12/02 00:31:03;;;;;;;15.55;2.72;;;7.60;99.90;;;;;;4926283;29;20028;-90
2021/12/02 00:33:31;;;;;;;16.10;2.72;;;7.60;99.90;;;;;;4926007;29;20079;-90
2021/12/02 00:35:57;;;;;;;14.98;2.88;;;7.60;99.90;;;;;;4925724;29;20056;-90
2021/12/02 00:38:25;;;;;;;13.82;1.95;;;7.60;99.90;;;;;;4926855;29;20311;-90
2021/12/02 00:40:52;;;;;;;15.05;2.47;;;7.50;99.90;;;;;;4925949;29;20031;-90
2021/12/02 00:43:18;;;;;;;14.43;2.25;;;7.40;99.90;;;;;;4926002;29;20038;-90
2021/12/02 00:45:45;;;;;;;20.38;3.10;;;7.40;99.90;;;;;;4926278;29;20300;-90
2021/12/02 00:48:15;;;;;;;18.08;2.15;;;7.30;99.90;;;;;;4926207;29;20090;-90
2021/12/02 00:50:45;;;;;;;23.30;3.15;;;7.30;99.90;;;;;;4926013;29;20044;-90
2021/12/02 00:53:11;;;;;;;19.20;2.58;;;7.30;99.90;;;;;;4925843;29;20379;-90
2021/12/02 00:55:40;;;;;;;17.95;3.05;;;7.30;99.90;;;;;;4926178;29;20020;-90
2021/12/02 00:58:06;;;;;;;18.30;2.60;;;7.30;99.90;;;;;;4942921;29;20055;-90
2021/12/02 01:00:33;;;;;;;17.42;2.85;;;7.30;99.90;;;;;;4943550;29;20216;-90
2021/12/02 01:03:00;;;;;;;14.10;2.25;;;7.40;99.90;;;;;;4928334;29;20115;-90
2021/12/02 01:05:27;;;;;;;13.80;2.55;;;7.30;99.90;;;;;;4943327;29;20039;-90
2021/12/02 01:07:53;;;;;;;13.18;1.83;;;7.30;99.90;;;;;;4943116;29;20211;-90
2021/12/02 01:10:20;;;;;;;17.83;2.65;;;7.30;99.90;;;;;;4926813;29;20312;-90
2021/12/02 01:12:47;;;;;;;14.48;2.10;;;7.40;99.90;;;;;;4928143;29;20083;-90
2021/12/02 01:15:13;;;;;;;13.85;2.45;;;7.40;99.90;;;;;;4923947;29;20408;-89
2021/12/02 01:17:39;;;;;;;17.25;2.95;;;7.40;99.90;;;;;;4943163;29;20355;-90
2021/12/02 01:20:06;;;;;;;13.57;2.53;;;7.40;99.90;;;;;;4927945;29;20040;-90
2021/12/02 01:22:36;;;;;;;16.40;2.25;;;7.40;99.90;;;;;;4928030;29;20043;-90
2021/12/02 01:25:02;;;;;;;16.08;2.17;;;7.40;99.90;;;;;;4927585;29;20044;-89
2021/12/02 01:27:28;;;;;;;16.15;2.35;;;7.40;99.90;;;;;;4922304;29;20163;-89
2021/12/02 01:29:55;;;;;;;15.07;2.15;;;7.40;99.90;;;;;;4926072;29;20320;-90
2021/12/02 01:32:21;;;;;;;11.60;2.33;;;7.30;99.90;;;;;;4927338;29;20283;-90
2021/12/02 01:34:47;;;;;;;13.20;2.08;;;7.30;99.90;;;;;;4925457;29;20256;-89
2021/12/02 01:37:14;;;;;;;15.38;1.92;;;7.30;99.90;;;;;;4940959;29;20075;-89
2021/12/02 01:39:41;;;;;;;15.23;2.25;;;7.30;99.90;;;;;;4942388;29;20020;-89
2021/12/02 01:42:14;;;;;;;11.63;1.83;;;7.20;99.90;;;;;;4941993;29;20284;-89
2021/12/02 01:44:41;;;;;;;13.93;2.08;;;7.10;99.90;;;;;;4942680;29;20024;-90
2021/12/02 01:47:14;;;;;;;17.40;2.67;;;7.10;99.90;;;;;;4926050;29;20079;-89
2021/12/02 01:49:43;;;;;;;11.82;1.90;;;7.10;99.90;;;;;;4941882;29;20028;-90
2021/12/02 01:52:11;;;;;;;14.02;2.53;;;7.00;99.90;;;;;;4926748;29;20067;-89
2021/12/02 01:54:44;;;;;;;14.30;2.58;;;7.00;99.90;;;;;;4927467;29;20035;-90
2021/12/02 01:57:27;;;;;;;17.10;2.27;;;7.00;99.90;;;;;;4942269;29;20047;-89
2021/12/02 02:00:07;;;;;;;16.15;1.88;;;7.00;99.90;;;;;;4926159;29;20052;-89
2021/12/02 02:02:37;;;;;;;10.52;1.83;;;7.00;99.90;;;;;;4941740;29;20040;-89
2021/12/02 02:05:07;;;;;;;13.68;2.00;;;7.00;99.90;;;;;;4941851;29;20027;-89
2021/12/02 02:07:35;;;;;;;12.98;2.10;;;7.00;99.90;;;;;;4941102;29;20043;-89
2021/12/02 02:10:02;;;;;;;18.67;2.10;;;7.00;99.90;;;;;;4926906;29;20023;-89
2021/12/02 02:12:27;;;;;;;16.83;2.15;;;7.00;99.90;;;;;;4926505;29;20320;-89
2021/12/02 02:14:55;;;;;;;13.43;2.30;;;7.00;99.90;;;;;;4927135;29;20116;-89
2021/12/02 02:17:27;;;;;;;12.68;1.88;;;7.00;99.90;;;;;;4940917;29;20103;-89
2021/12/02 02:19:54;;;;;;;19.05;2.08;;;7.00;99.90;;;;;;4926792;29;20020;-89
2021/12/02 02:22:22;;;;;;;11.55;2.22;;;6.90;99.90;;;;;;4926604;29;20047;-89
2021/12/02 02:24:49;;;;;;;16.58;2.47;;;6.90;99.90;;;;;;4926386;29;20023;-89
2021/12/02 02:27:15;;;;;;;14.00;2.40;;;6.90;99.90;;;;;;4926211;29;20332;-89
2021/12/02 02:29:41;;;;;;;11.98;2.13;;;6.80;99.90;;;;;;4926189;29;20060;-89
2021/12/02 02:32:07;;;;;;;13.95;1.77;;;6.80;99.90;;;;;;4924052;29;20024;-89
2021/12/02 02:34:32;;;;;;;13.35;1.50;;;6.80;99.90;;;;;;4920935;29;20063;-89
2021/12/02 02:37:02;;;;;;;16.67;1.77;;;6.80;99.90;;;;;;4926187;29;20039;-88
2021/12/02 02:39:30;;;;;;;10.93;1.95;;;6.80;99.90;;;;;;4926293;29;20035;-88
2021/12/02 02:42:02;;;;;;;15.43;2.63;;;6.80;99.90;;;;;;4925676;29;20035;-88
2021/12/02 02:44:32;;;;;;;9.48;1.40;;;6.70;99.90;;;;;;4926545;29;20029;-88
2021/12/02 02:46:58;;;;;;;14.35;1.65;;;6.70;99.90;;;;;;4926011;29;20068;-88
2021/12/02 02:49:23;;;;;;;15.68;1.98;;;6.70;99.90;;;;;;4925668;29;20024;-89
2021/12/02 02:51:49;;;;;;;17.17;1.90;;;6.70;99.90;;;;;;4926180;29;20036;-88
2021/12/02 02:54:16;;;;;;;7.35;2.00;;;6.70;99.90;;;;;;4926063;29;20028;-89
2021/12/02 02:56:57;;;;;;;7.88;1.63;;;6.80;99.90;;;;;;4926502;29;20028;-88
2021/12/02 03:04:48;;;;;;;5.78;1.42;;;6.70;99.90;;;;;;4922961;29;20027;-88
2021/12/02 03:07:38;;;;;;;15.07;1.92;;;6.70;99.90;;;;;;4926072;29;20027;-88
2021/12/02 03:12:40;;;;;;;11.02;1.67;;;6.50;99.90;;;;;;4925423;29;20028;-88
2021/12/02 03:17:33;;;;;;;9.80;1.50;;;6.50;99.90;;;;;;4925471;29;20035;-88
2021/12/02 03:20:01;;;;;;;7.95;1.52;;;6.50;99.90;;;;;;4925211;29;20024;-88
2021/12/02 03:22:27;;;;;;;9.82;2.45;;;6.50;99.90;;;;;;4925771;29;20032;-89
2021/12/02 03:24:53;;;;;;;13.27;1.52;;;6.40;99.90;;;;;;4940021;29;20020;-88
2021/12/02 03:27:19;;;;;;;10.63;1.88;;;6.40;99.90;;;;;;4940065;29;20081;-87
2021/12/02 03:29:44;;;;;;;12.82;1.83;;;6.40;99.90;;;;;;4925299;29;20269;-88
2021/12/02 03:32:10;;;;;;;11.63;1.38;;;6.40;99.90;;;;;;4924956;29;20087;-88
2021/12/02 03:34:37;;;;;;;11.23;1.60;;;6.40;99.90;;;;;;4924628;29;20055;-88
2021/12/02 03:37:04;;;;;;;12.32;1.63;;;6.40;99.90;;;;;;4925198;29;20071;-88
2021/12/02 03:39:30;;;;;;;12.10;3.22;;;6.40;99.90;;;;;;4940166;29;20043;-88
2021/12/02 03:41:58;;;;;;;14.60;1.80;;;6.30;99.90;;;;;;4940275;29;20032;-88
2021/12/02 03:44:24;;;;;;;13.88;1.80;;;6.40;99.90;;;;;;4939909;29;20028;-88
2021/12/02 03:46:50;;;;;;;14.82;2.22;;;6.30;99.90;;;;;;4925435;29;20024;-88
2021/12/02 03:49:16;;;;;;;9.15;2.03;;;6.30;99.90;;;;;;4939626;29;20215;-88
2021/12/02 03:51:42;;;;;;;11.95;1.65;;;6.20;99.90;;;;;;4938362;29;20020;-88
2021/12/02 03:54:07;;;;;;;13.68;1.67;;;6.20;99.90;;;;;;4922429;29;20079;-88
2021/12/02 03:56:33;;;;;;;13.52;2.90;;;6.20;99.90;;;;;;4921697;29;20043;-88
2021/12/02 03:58:59;;;;;;;9.90;1.60;;;6.10;99.90;;;;;;4925220;29;20055;-88
2021/12/02 04:01:25;;;;;;;13.20;1.88;;;6.10;99.90;;;;;;4923027;29;20084;-87
2021/12/02 04:03:51;;;;;;;14.13;2.13;;;6.10;99.90;;;;;;4925608;29;20043;-88
2021/12/02 04:06:17;;;;;;;17.63;2.40;;;6.10;99.90;;;;;;4923692;29;20016;-88
2021/12/02 04:11:24;;;;;;;14.45;2.13;;;6.00;99.90;;;;;;4924538;29;20088;-87
2021/12/02 04:16:40;;;;;;;8.75;1.70;;;6.00;99.90;;;;;;4932681;29;20389;-87
2021/12/02 04:19:08;;;;;;;16.05;2.20;;;6.00;99.90;;;;;;4925158;29;20028;-88
2021/12/02 04:21:34;;;;;;;13.95;2.33;;;6.00;99.90;;;;;;4924734;29;20024;-87
2021/12/02 04:24:01;;;;;;;10.10;2.00;;;6.00;99.90;;;;;;4938909;29;20340;-88
2021/12/02 04:26:27;;;;;;;19.08;3.33;;;6.00;99.90;;;;;;4919607;29;20524;-87
2021/12/02 04:28:52;;;;;;;12.10;1.80;;;5.90;99.90;;;;;;4921043;29;20032;-88
2021/12/02 04:31:18;;;;;;;12.75;2.00;;;6.00;99.90;;;;;;4924952;29;20047;-87
2021/12/02 04:33:44;;;;;;;17.98;2.25;;;5.90;99.90;;;;;;4939057;29;20108;-88
2021/12/02 04:36:10;;;;;;;8.13;1.55;;;5.80;99.90;;;;;;4924699;29;20028;-88
2021/12/02 04:38:36;;;;;;;15.57;2.55;;;5.80;99.90;;;;;;4924545;29;20111;-88
2021/12/02 04:41:04;;;;;;;17.63;3.03;;;5.80;99.90;;;;;;4939103;29;20035;-87
2021/12/02 04:43:29;;;;;;;10.13;1.83;;;5.80;99.90;;;;;;4939094;29;20231;-88
2021/12/02 04:45:56;;;;;;;8.18;2.03;;;5.80;99.90;;;;;;4923674;29;20028;-88
2021/12/02 04:48:22;;;;;;;9.77;2.60;;;5.70;99.90;;;;;;4939167;29;20106;-87
2021/12/02 04:50:48;;;;;;;8.75;1.50;;;5.70;99.90;;;;;;4924421;29;20347;-88
2021/12/02 04:53:14;;;;;;;17.10;2.63;;;5.70;99.90;;;;;;4924346;29;20021;-88
2021/12/02 04:55:40;;;;;;;13.50;2.25;;;5.70;99.90;;;;;;4923586;29;20055;-88
2021/12/02 04:58:06;;;;;;;7.70;1.60;;;5.60;99.90;;;;;;4924929;29;20052;-87
2021/12/02 05:00:32;;;;;;;13.50;2.00;;;5.50;99.90;;;;;;4924969;29;20096;-88
2021/12/02 05:02:59;;;;;;;7.72;1.60;;;5.50;99.90;;;;;;4925123;29;20049;-88
2021/12/02 05:05:25;;;;;;;12.00;2.42;;;5.60;99.90;;;;;;4924007;29;20020;-87
2021/12/02 05:07:53;;;;;;;17.55;2.50;;;5.60;99.90;;;;;;4924788;29;20020;-87
2021/12/02 05:10:20;;;;;;;16.23;2.53;;;5.60;99.90;;;;;;4923982;29;20216;-87
2021/12/02 05:12:45;;;;;;;10.30;2.00;;;5.60;99.90;;;;;;4927361;29;20028;-87
2021/12/02 05:15:11;;;;;;;10.18;1.85;;;5.60;99.90;;;;;;4928067;29;20334;-87
2021/12/02 05:17:37;;;;;;;13.00;2.13;;;5.70;99.90;;;;;;4927656;29;20056;-87
2021/12/02 05:20:06;;;;;;;12.82;2.00;;;5.70;99.90;;;;;;4928026;29;20031;-86
2021/12/02 05:22:33;;;;;;;12.63;2.95;;;5.70;99.90;;;;;;4942060;29;20316;-87
2021/12/02 05:24:59;;;;;;;8.07;1.88;;;5.70;99.90;;;;;;4927746;29;20024;-87
2021/12/02 05:27:25;;;;;;;14.50;2.67;;;5.70;99.90;;;;;;4942424;29;20193;-87
2021/12/02 05:29:50;;;;;;;11.88;2.60;;;5.70;99.90;;;;;;4927402;29;20020;-87
2021/12/02 05:32:16;;;;;;;14.73;2.22;;;5.70;99.90;;;;;;4927574;29;20035;-87
2021/12/02 05:34:48;;;;;;;6.93;2.22;;;5.60;99.90;;;;;;4927937;29;20060;-87
2021/12/02 05:37:14;;;;;;;14.23;2.20;;;5.60;99.90;;;;;;4927485;29;20124;-87
2021/12/02 05:39:40;;;;;;;12.63;2.35;;;5.60;99.90;;;;;;4927425;29;20050;-87
2021/12/02 05:42:06;;;;;;;13.65;2.65;;;5.50;99.90;;;;;;4941562;29;20088;-87
2021/12/02 05:44:32;;;;;;;11.93;2.45;;;5.60;99.90;;;;;;4924455;29;20036;-88
2021/12/02 05:46:58;;;;;;;13.88;2.25;;;5.50;99.90;;;;;;4942590;29;20040;-87
2021/12/02 05:49:23;;;;;;;12.98;2.38;;;5.50;99.90;;;;;;4941666;29;20256;-87
2021/12/02 05:51:49;;;;;;;15.73;2.65;;;5.50;99.90;;;;;;4924821;29;20032;-87
2021/12/02 05:54:15;;;;;;;11.80;2.63;;;5.50;99.90;;;;;;4925347;29;20067;-88
2021/12/02 05:56:41;;;;;;;15.50;3.08;;;5.50;99.90;;;;;;4927741;29;20027;-87
2021/12/02 05:59:07;;;;;;;13.43;3.15;;;5.50;99.90;;;;;;4940649;29;20205;-87
2021/12/02 06:01:34;;;;;;;10.85;2.90;;;5.40;99.90;;;;;;4926739;29;20032;-88
2021/12/02 06:03:59;;;;;;;12.00;2.53;;;5.40;99.90;;;;;;4927385;29;20091;-87
2021/12/02 06:06:27;;;;;;;9.73;2.63;;;5.30;99.90;;;;;;4925585;29;20027;-88
2021/12/02 06:08:53;;;;;;;12.20;3.20;;;5.40;99.90;;;;;;4941513;29;20086;-88
2021/12/02 06:11:18;;;;;;;6.00;2.22;;;5.40;99.90;;;;;;4926833;29;20032;-87
2021/12/02 06:13:46;;;;;;;13.23;2.90;;;5.50;99.90;;;;;;4941340;29;20578;-87
2021/12/02 06:16:12;;;;;;;13.88;2.95;;;5.50;99.90;;;;;;4941752;29;20144;-87
2021/12/02 06:18:38;;;;;;;13.18;3.40;;;5.50;99.90;;;;;;4927056;29;20028;-87
2021/12/02 06:21:04;;;;;;;9.75;2.80;;;5.50;99.90;;;;;;4927427;29;20024;-87
2021/12/02 06:23:30;;;;;;;11.85;2.97;;;5.50;99.90;;;;;;4925459;29;20213;-87
2021/12/02 06:25:56;;;;;;;8.70;2.80;;;5.50;99.90;;;;;;4939194;29;20071;-87
2021/12/02 06:28:22;;;;;;;12.13;3.05;;;5.40;99.90;;;;;;4941899;29;20016;-87
2021/12/02 06:30:47;;;;;;;10.55;2.95;;;5.50;99.90;;;;;;4925613;29;20051;-87
2021/12/02 06:33:14;;;;;;;9.18;3.47;;;5.40;99.90;;;;;;4931262;29;20712;-87
2021/12/02 06:35:40;;;;;;;11.38;3.20;;;5.40;99.90;;;;;;4930568;29;20047;-86
2021/12/02 06:38:06;;;;;;;9.82;2.90;;;5.40;99.90;;;;;;4934140;29;20504;-87
2021/12/02 06:40:34;;;;;;;11.65;2.95;;;5.30;99.90;;;;;;4932470;29;20031;-87
2021/12/02 06:43:00;;;;;;;19.58;3.10;;;5.30;99.90;;;;;;4932540;29;20070;-87
2021/12/02 06:45:26;;;;;;;14.45;4.57;;;5.30;99.90;;;;;;4916700;29;20035;-87
2021/12/02 06:47:57;;;;;;;13.23;3.35;;;5.30;99.90;;;;;;4915172;29;20022;-87
2021/12/02 06:50:22;;;;;;;13.15;3.22;;;5.30;99.90;;;;;;4923714;29;20020;-87
2021/12/02 06:52:50;;;;;;;12.52;3.20;;;5.30;99.90;;;;;;4926570;29;20215;-87
2021/12/02 06:55:17;;;;;;;10.68;3.50;;;5.20;99.90;;;;;;4926097;29;20035;-87
2021/12/02 06:57:43;;;;;;;14.00;4.03;;;5.20;99.90;;;;;;4925736;29;20353;-87
2021/12/02 07:00:12;;;;;;;9.52;3.15;;;5.20;99.90;;;;;;4925878;29;20024;-87
2021/12/02 07:02:39;;;;;;;15.23;3.67;;;5.20;99.90;;;;;;4908803;29;20036;-87
2021/12/02 07:05:06;;;;;;;11.68;3.45;;;5.20;99.90;;;;;;4923051;29;20025;-87
2021/12/02 07:07:36;;;;;;;9.73;3.40;;;5.30;99.90;;;;;;4925885;29;20051;-87
2021/12/02 07:10:07;;;;;;;12.82;3.70;;;5.30;99.90;;;;;;4932653;29;20106;-88
2021/12/02 07:12:33;;;;;;;12.35;3.40;;;5.30;99.90;;;;;;4933078;29;20567;-87
2021/12/02 07:15:06;;;;;;;10.57;3.28;;;5.20;99.90;;;;;;4933488;29;20079;-86
2021/12/02 07:17:32;;;;;;;14.55;3.50;;;5.20;99.90;;;;;;4934617;29;20035;-88
2021/12/02 07:19:59;;;;;;;9.15;3.65;;;5.20;99.90;;;;;;4933442;29;20527;-87
2021/12/02 07:22:24;;;;;;;12.45;4.38;;;5.20;99.90;;;;;;4933255;29;20191;-87
2021/12/02 07:24:50;;;;;;;12.80;3.63;;;5.20;99.90;;;;;;4934399;29;20536;-87
2021/12/02 07:27:16;;;;;;;12.55;3.45;;;5.20;99.90;;;;;;4934433;29;20612;-88
2021/12/02 07:29:42;;;;;;;9.63;3.90;;;5.10;99.90;;;;;;4934729;29;20030;-88
2021/12/02 07:32:10;;;;;;;10.48;3.20;;;5.20;99.90;;;;;;4935026;29;20028;-90
2021/12/02 07:34:40;;;;;;;11.25;2.85;;;5.20;99.90;;;;;;4939975;29;20027;-91
2021/12/02 07:37:05;;;;;;;11.02;3.50;;;5.10;99.90;;;;;;4945526;29;20091;-90
2021/12/02 07:39:31;;;;;;;9.35;2.97;;;5.20;99.90;;;;;;4945313;29;20058;-87
2021/12/02 07:41:57;;;;;;;11.05;3.60;;;5.20;99.90;;;;;;4951866;29;20095;-90
2021/12/02 07:44:23;;;;;;;13.57;3.55;;;5.20;99.90;;;;;;4953060;29;20027;-89
2021/12/02 07:46:49;;;;;;;15.68;3.72;;;5.20;99.90;;;;;;4933519;29;20020;-90
2021/12/02 07:49:15;;;;;;;7.75;3.60;;;5.20;99.90;;;;;;4931452;29;20039;-90
2021/12/02 07:51:44;;;;;;;14.48;4.00;;;5.20;99.90;;;;;;4946075;29;20058;-90
2021/12/02 07:54:12;;;;;;;12.85;3.78;;;5.10;99.90;;;;;;4957281;28;20008;-90
2021/12/02 07:56:38;;;;;;;9.02;3.55;;;5.10;99.90;;;;;;4957489;28;20201;-90
2021/12/02 07:59:05;;;;;;;12.50;4.22;;;5.10;99.90;;;;;;4945840;28;20049;-82
2021/12/02 08:01:34;;;;;;;13.77;4.47;;;5.10;99.90;;;;;;4934238;29;20364;-82
2021/12/02 08:04:00;;;;;;;37.45;16.67;;;5.10;99.90;;;;;;4931892;29;20031;-82
2021/12/02 08:06:26;;;;;;;21.30;6.97;;;5.20;99.90;;;;;;4945810;29;20067;-82
2021/12/02 08:08:51;;;;;;;10.40;4.80;;;5.20;99.90;;;;;;4946938;28;20099;-83
2021/12/02 08:11:18;;;;;;;12.15;4.50;;;5.30;99.90;;;;;;4956695;29;20026;-82
2021/12/02 08:13:50;;;;;;;11.02;4.40;;;5.30;99.90;;;;;;4955710;29;20024;-82
2021/12/02 08:16:16;;;;;;;91.90;17.08;;;5.40;99.90;;;;;;4955701;29;20031;-82
2021/12/02 08:18:42;;;;;;;45.63;14.68;;;5.40;99.90;;;;;;4956318;29;20032;-81
2021/12/02 08:21:07;;;;;;;20.67;8.93;;;5.50;99.90;;;;;;4952508;28;20039;-81
2021/12/02 08:23:33;;;;;;;9.68;5.65;;;5.50;99.90;;;;;;4950364;29;20032;-80
2021/12/02 08:25:59;;;;;;;14.63;4.18;;;5.50;99.90;;;;;;4956188;28;20039;-82
2021/12/02 08:28:24;;;;;;;11.80;4.63;;;5.50;99.90;;;;;;4954009;29;20023;-81
2021/12/02 08:30:50;;;;;;;9.57;3.95;;;5.50;99.90;;;;;;4957502;29;20095;-81
2021/12/02 08:33:18;;;;;;;11.98;4.07;;;5.50;99.90;;;;;;4944890;29;20056;-81
2021/12/02 08:35:44;;;;;;;10.82;3.42;;;5.70;99.90;;;;;;4932463;29;20039;-89
2021/12/02 08:38:12;;;;;;;11.65;3.85;;;5.70;99.90;;;;;;4944103;29;20039;-81
2021/12/02 08:40:40;;;;;;;18.80;4.00;;;5.80;99.90;;;;;;4946916;29;20216;-81
2021/12/02 08:43:11;;;;;;;14.10;3.40;;;5.80;99.90;;;;;;4936322;29;20061;-81
2021/12/02 08:45:39;;;;;;;13.18;3.47;;;5.90;99.90;;;;;;4947773;28;20088;-82
2021/12/02 08:48:05;;;;;;;10.07;2.60;;;5.90;99.90;;;;;;4948731;29;20098;-81
2021/12/02 08:50:32;;;;;;;10.18;2.92;;;5.90;99.90;;;;;;4933750;29;20198;-83
2021/12/02 08:52:58;;;;;;;14.93;2.95;;;5.90;99.90;;;;;;4925561;29;20260;-83
2021/12/02 08:55:25;;;;;;;10.40;2.40;;;6.00;99.90;;;;;;4916214;29;20903;-83
2021/12/02 08:57:53;;;;;;;9.93;2.70;;;6.10;99.90;;;;;;4916297;29;20569;-82
2021/12/02 09:00:21;;;;;;;9.27;2.85;;;6.10;99.90;;;;;;4915239;29;20095;-81
2021/12/02 09:02:48;;;;;;;12.23;2.72;;;6.10;99.90;;;;;;4913586;29;20046;-81
2021/12/02 09:05:15;;;;;;;9.05;2.80;;;6.10;99.90;;;;;;4918319;29;20027;-81
2021/12/02 09:07:44;;;;;;;10.07;2.53;;;6.20;99.90;;;;;;4925262;29;20046;-82
2021/12/02 09:10:10;;;;;;;10.38;2.50;;;6.20;99.90;;;;;;4931496;29;20395;-82
2021/12/02 09:12:56;;;;;;;13.13;3.08;;;6.30;99.90;;;;;;4920516;29;20086;-82
2021/12/02 09:15:23;;;;;;;11.80;2.30;;;6.30;99.90;;;;;;4914868;29;20119;-82
2021/12/02 09:17:50;;;;;;;8.52;2.40;;;6.30;99.90;;;;;;4917917;29;20026;-81
2021/12/02 09:20:16;;;;;;;12.10;3.72;;;6.40;99.90;;;;;;4934919;29;20404;-80
2021/12/02 09:22:43;;;;;;;16.25;2.90;;;6.40;99.90;;;;;;4935255;29;20125;-80
2021/12/02 09:25:10;;;;;;;7.55;2.80;;;6.50;99.90;;;;;;4935054;29;20101;-80
2021/12/02 09:27:36;;;;;;;13.70;2.72;;;6.50;99.90;;;;;;4935146;29;20039;-80
2021/12/02 09:30:04;;;;;;;9.45;2.60;;;6.50;99.90;;;;;;4917623;29;20020;-79
2021/12/02 09:32:30;;;;;;;10.75;1.90;;;6.50;99.90;;;;;;4916626;29;20028;-80
2021/12/02 09:34:56;;;;;;;16.27;3.38;;;6.50;99.90;;;;;;4922543;29;20047;-79
2021/12/02 09:37:30;;;;;;;12.73;3.78;;;6.60;99.90;;;;;;4935683;29;20107;-79
2021/12/02 09:39:57;;;;;;;13.18;3.00;;;6.50;99.90;;;;;;4934765;29;20028;-79
2021/12/02 09:42:24;;;;;;;8.32;2.20;;;6.60;99.90;;;;;;4934814;29;20091;-79
2021/12/02 09:44:54;;;;;;;9.52;2.30;;;6.70;99.90;;;;;;4934268;29;20107;-79
2021/12/02 09:47:21;;;;;;;14.68;2.75;;;6.70;99.90;;;;;;4935761;29;20384;-79
2021/12/02 09:49:48;;;;;;;19.25;3.60;;;6.70;99.90;;;;;;4935193;29;20042;-80
2021/12/02 09:52:15;;;;;;;19.52;4.40;;;6.90;99.90;;;;;;4937072;29;20128;-81
2021/12/02 09:54:45;;;;;;;11.75;2.60;;;6.90;99.90;;;;;;4935283;29;20485;-82
2021/12/02 09:57:17;;;;;;;8.02;2.10;;;6.90;99.90;;;;;;4935142;29;20019;-82
2021/12/02 10:02:14;;;;;;;9.50;2.08;;;6.90;99.90;;;;;;4934233;29;20063;-82
2021/12/02 10:04:58;;;;;;;13.30;3.08;;;7.00;99.90;;;;;;4934533;29;20059;-82
2021/12/02 10:07:37;;;;;;;19.20;6.80;;;7.10;99.90;;;;;;4933667;29;20028;-82
2021/12/02 10:12:52;;;;;;;15.57;2.50;;;7.30;99.90;;;;;;4934576;29;20118;-82
2021/12/02 10:15:19;;;;;;;17.40;2.42;;;7.30;99.90;;;;;;4924297;29;20393;-82
2021/12/02 10:17:51;;;;;;;10.43;2.10;;;7.40;99.90;;;;;;4934328;29;20559;-82
2021/12/02 10:23:28;;;;;;;10.00;2.63;;;7.40;99.90;;;;;;4933824;29;20047;-82
2021/12/02 10:26:03;;;;;;;13.25;2.33;;;7.50;99.90;;;;;;4934180;29;20067;-82
2021/12/02 10:28:35;;;;;;;11.25;2.40;;;7.50;99.90;;;;;;4934140;29;20497;-82
2021/12/02 10:31:06;;;;;;;12.95;2.20;;;7.60;99.90;;;;;;4934234;29;20031;-82
2021/12/02 10:33:44;;;;;;;9.82;2.45;;;7.60;99.90;;;;;;4934188;29;20024;-82
2021/12/02 10:36:32;;;;;;;11.13;2.80;;;7.70;99.90;;;;;;4915553;29;20036;-82
2021/12/02 10:39:08;;;;;;;11.15;2.40;;;7.70;99.90;;;;;;4914823;29;20252;-82
2021/12/02 10:41:34;;;;;;;9.88;2.00;;;7.90;99.90;;;;;;4914854;29;20024;-82
2021/12/02 10:44:06;;;;;;;12.68;1.90;;;7.90;99.90;;;;;;4914427;29;20036;-82
2021/12/02 10:46:34;;;;;;;13.35;1.65;;;7.90;99.90;;;;;;4915405;29;20031;-82
2021/12/02 10:49:00;;;;;;;13.15;2.42;;;8.00;99.90;;;;;;4915429;29;20024;-82
2021/12/02 10:51:38;;;;;;;11.55;2.33;;;8.10;99.90;;;;;;4915479;29;20504;-82
2021/12/02 10:54:08;;;;;;;14.45;1.88;;;8.10;99.90;;;;;;4914873;29;20059;-82
2021/12/02 10:56:37;;;;;;;11.80;2.42;;;8.20;99.90;;;;;;4915217;29;20032;-82
2021/12/02 10:59:32;;;;;;;13.02;2.08;;;8.30;99.90;;;;;;4913683;29;20052;-83
2021/12/02 11:01:59;;;;;;;;;;;8.50;99.90;;;;;;4906059;29;20036;-82
2021/12/02 11:04:27;;;;;;;10.00;2.20;;;8.60;99.90;;;;;;4915635;29;19930;-82
2021/12/02 11:07:00;;;;;;;10.25;2.65;;;8.70;99.90;;;;;;4914954;29;20102;-81
2021/12/02 11:09:28;;;;;;;18.83;2.97;;;8.90;99.90;;;;;;4914738;29;20281;-82
2021/12/02 11:12:08;;;;;;;11.68;2.38;;;9.00;99.90;;;;;;4915161;29;20396;-82
2021/12/02 11:14:39;;;;;;;9.60;2.40;;;9.00;99.90;;;;;;4914939;29;20032;-82
2021/12/02 11:17:07;;;;;;;9.95;1.90;;;8.90;99.90;;;;;;4914897;29;20058;-82
2021/12/02 11:19:34;;;;;;;10.15;1.95;;;8.70;99.90;;;;;;4933234;29;20042;-82
2021/12/02 11:22:11;;;;;;;12.15;2.08;;;8.60;99.90;;;;;;4933004;29;20046;-82
2021/12/02 11:24:38;;;;;;;10.45;2.17;;;8.50;99.90;;;;;;4932418;29;20036;-82
2021/12/02 11:27:10;;;;;;;11.10;1.90;;;8.50;99.90;;;;;;4933183;29;20021;-82
2021/12/02 11:30:00;;;;;;;6.65;1.42;;;8.60;99.90;;;;;;4933131;29;20062;-82
2021/12/02 11:32:26;;;;;;;12.32;2.92;;;8.80;99.90;;;;;;4932181;29;20028;-82
2021/12/02 11:35:12;;;;;;;9.05;1.30;;;9.00;99.90;;;;;;4932156;29;20412;-82
2021/12/02 11:37:39;;;;;;;5.63;2.30;;;9.10;99.90;;;;;;4932586;29;20022;-82
2021/12/02 11:40:18;;;;;;;12.13;1.48;;;9.20;99.90;;;;;;4932729;29;20124;-82
2021/12/02 11:42:46;;;;;;;8.93;2.30;;;9.20;99.90;;;;;;4932689;29;20511;-82
2021/12/02 11:45:14;;;;;;;8.80;1.98;;;9.20;99.90;;;;;;4932581;29;20473;-81
2021/12/02 11:47:41;;;;;;;9.77;3.20;;;9.10;99.90;;;;;;4932587;29;20051;-81
2021/12/02 11:50:09;;;;;;;11.40;2.50;;;9.20;99.90;;;;;;4932673;29;20158;-82
2021/12/02 11:52:37;;;;;;;10.48;1.63;;;9.30;99.90;;;;;;4932663;29;20294;-82
2021/12/02 11:55:06;;;;;;;9.75;2.55;;;9.30;99.90;;;;;;4932276;29;20027;-82
2021/12/02 11:57:33;;;;;;;11.38;2.10;;;9.40;99.90;;;;;;4931150;29;20051;-81
2021/12/02 12:00:00;;;;;;;11.40;2.42;;;9.50;99.90;;;;;;4933144;29;20420;-81
2021/12/02 12:02:26;;;;;;;8.10;1.98;;;9.50;99.90;;;;;;4932455;29;20050;-81
2021/12/02 12:04:55;;;;;;;13.00;2.17;;;9.50;99.90;;;;;;4931665;29;20497;-81
2021/12/02 12:07:22;;;;;;;18.15;2.45;;;9.40;99.90;;;;;;4932503;29;20296;-81
2021/12/02 12:09:48;;;;;;;6.57;2.10;;;9.40;99.90;;;;;;4932185;29;20024;-81
2021/12/02 12:12:14;;;;;;;11.63;2.17;;;9.30;99.90;;;;;;4932588;29;20027;-81
2021/12/02 12:14:42;;;;;;;12.07;1.55;;;9.50;99.90;;;;;;4932539;29;20144;-81
2021/12/02 12:17:13;;;;;;;12.52;1.98;;;9.50;99.90;;;;;;4933353;29;20083;-81
2021/12/02 12:19:44;;;;;;;8.32;2.03;;;9.40;99.90;;;;;;4933260;29;20027;-81
2021/12/02 12:22:29;;;;;;;14.25;2.40;;;9.20;99.90;;;;;;4932388;29;20031;-81
2021/12/02 12:24:58;;;;;;;9.00;2.05;;;9.10;99.90;;;;;;4932770;29;20111;-81
2021/12/02 12:27:30;;;;;;;15.95;2.92;;;9.10;99.90;;;;;;4932046;29;20418;-81
2021/12/02 12:30:09;;;;;;;19.50;3.47;;;9.00;99.90;;;;;;4932848;29;20059;-81
2021/12/02 12:35:20;;;;;;;10.00;1.90;;;9.10;99.90;;;;;;4932410;29;20027;-82
2021/12/02 12:37:49;;;;;;;13.07;2.90;;;9.10;99.90;;;;;;4932460;29;20015;-82
2021/12/02 12:40:17;;;;;;;7.68;2.08;;;9.20;99.90;;;;;;4932578;29;20027;-81
2021/12/02 12:42:47;;;;;;;7.30;2.00;;;9.50;99.90;;;;;;4932065;29;20040;-82
2021/12/02 12:45:27;;;;;;;10.15;2.55;;;9.90;99.90;;;;;;4917458;29;20111;-82
2021/12/02 12:47:56;;;;;;;11.15;3.05;;;10.10;99.90;;;;;;4913103;29;20021;-81
2021/12/02 12:51:07;;;;;;;10.85;2.30;;;10.20;99.90;;;;;;4913441;29;20035;-82
2021/12/02 12:53:39;;;;;;;11.32;1.75;;;10.30;99.90;;;;;;4894071;29;20032;-81
2021/12/02 12:56:08;;;;;;;9.07;1.65;;;10.20;99.90;;;;;;4912997;29;20469;-80
2021/12/02 12:58:37;;;;;;;11.38;2.20;;;10.00;99.90;;;;;;4912784;29;20078;-82
2021/12/02 13:01:19;;;;;;;13.65;1.88;;;10.00;99.90;;;;;;4913267;29;20024;-81
2021/12/02 13:04:03;;;;;;;15.98;2.45;;;9.80;99.90;;;;;;4912827;29;20040;-82
2021/12/02 13:06:32;;;;;;;7.47;1.63;;;9.90;99.90;;;;;;4912154;29;20152;-82
2021/12/02 13:09:05;;;;;;;9.35;1.50;;;9.80;99.90;;;;;;4912830;29;20024;-81
2021/12/02 13:11:34;;;;;;;13.60;1.85;;;9.80;99.90;;;;;;4913177;29;20036;-82
2021/12/02 13:14:04;;;;;;;13.23;1.52;;;9.70;99.90;;;;;;4912883;29;20021;-82
2021/12/02 13:16:30;;;;;;;5.18;1.50;;;9.60;99.90;;;;;;4912134;29;20024;-81
2021/12/02 13:19:11;;;;;;;11.85;1.80;;;9.70;99.90;;;;;;4914381;29;20512;-82
2021/12/02 13:21:38;;;;;;;5.03;1.40;;;9.90;99.90;;;;;;4930743;29;20027;-81
2021/12/02 13:24:14;;;;;;;11.60;2.03;;;10.00;99.90;;;;;;4932543;29;20038;-82
2021/12/02 13:26:44;;;;;;;11.15;2.17;;;10.00;99.90;;;;;;4930472;29;20392;-81